Terminal Aerodrome Forecast
Issued by NWS

Home | Current Version | Previous Version | Text Only | Print | Product List | Glossary On
Versions: 1 2 3 4 5 6 7 8 9 10 11 12 13 14 15 16 17 18 19 20 21 22 23 24 25 26 27 28 29 30 31 32 33 34 35 36
000
FTUS42 KRAH 301425 AAA
TAFINT
TAF AMD
KINT 301425Z 3014/3112 04009KT P6SM SCT009 BKN040
      TEMPO 3014/3017 BKN012
     FM301700 05009KT P6SM SCT015 BKN025
     FM302000 03009KT P6SM VCSH BKN035
     FM302300 VRB03KT P6SM SCT060 SCT100 BKN150=

USA.gov is the U.S. government's official web portal to all federal, state and local government web resources and services.